Time;durP1;ratioP1;P1;durP2;ratioP2;P2;SDS_P1;SDS_P2;PMS_P1;PMS_P2;Temp;Humidity;BMP_temperature;BMP_pressure;BME280_temperature;BME280_humidity;BME280_pressure;Samples;Min_cycle;Max_cycle;Signal;HPM_P1;HPM_P2
2022/11/07 00:02:21;;;;;;;15.93;7.75;;;10.10;99.90;;;;;;4986920;28;20042;-86
2022/11/07 00:05:07;;;;;;;14.10;8.15;;;10.20;99.90;;;;;;4985355;28;20068;-84
2022/11/07 00:07:32;;;;;;;;;;;10.20;99.90;;;;;;5005091;28;20046;-84
2022/11/07 00:09:58;;;;;;;14.10;6.93;;;10.30;99.90;;;;;;4989563;28;19925;-85
2022/11/07 00:12:25;;;;;;;14.63;7.35;;;10.50;99.90;;;;;;4987888;28;20046;-84
2022/11/07 00:14:51;;;;;;;14.00;7.35;;;10.30;99.90;;;;;;4983779;28;20520;-85
2022/11/07 00:17:17;;;;;;;16.23;6.57;;;10.40;99.90;;;;;;4986091;28;20053;-85
2022/11/07 00:19:43;;;;;;;13.82;6.85;;;10.40;99.90;;;;;;4971059;28;20050;-84
2022/11/07 00:22:09;;;;;;;14.02;6.25;;;10.40;99.90;;;;;;4972108;28;20059;-85
2022/11/07 00:24:34;;;;;;;15.70;7.10;;;10.60;99.90;;;;;;4952990;28;20053;-85
2022/11/07 00:27:00;;;;;;;12.75;6.07;;;10.50;99.90;;;;;;4966775;28;20056;-85
2022/11/07 00:29:26;;;;;;;16.15;6.32;;;10.30;99.90;;;;;;4967673;28;20038;-85
2022/11/07 00:31:53;;;;;;;19.45;6.70;;;10.50;99.90;;;;;;4965841;28;20463;-85
2022/11/07 00:34:19;;;;;;;15.25;6.95;;;10.50;99.90;;;;;;4982725;28;20484;-85
2022/11/07 00:36:44;;;;;;;12.77;6.57;;;10.20;99.90;;;;;;4967622;28;20047;-85
2022/11/07 00:39:10;;;;;;;15.85;6.50;;;10.40;99.90;;;;;;4952519;28;20039;-84
2022/11/07 00:41:37;;;;;;;16.95;6.75;;;10.40;99.90;;;;;;4984807;28;20038;-84
2022/11/07 00:44:04;;;;;;;17.08;7.03;;;10.30;99.90;;;;;;4965898;28;20211;-85
2022/11/07 00:46:31;;;;;;;17.38;6.10;;;10.40;99.90;;;;;;4987332;28;20034;-84
2022/11/07 00:48:57;;;;;;;19.50;6.55;;;10.70;99.90;;;;;;4966299;28;20496;-83
2022/11/07 00:51:25;;;;;;;17.83;6.30;;;10.40;99.90;;;;;;4966934;28;20042;-83
2022/11/07 00:53:51;;;;;;;18.10;6.30;;;10.60;99.90;;;;;;4951593;28;20077;-84
2022/11/07 00:56:19;;;;;;;13.48;6.28;;;10.60;99.90;;;;;;4967889;28;20082;-83
2022/11/07 00:58:46;;;;;;;16.17;6.75;;;10.60;99.90;;;;;;4986257;28;20042;-83
2022/11/07 01:01:18;;;;;;;18.48;6.70;;;10.80;99.90;;;;;;4967744;28;20054;-85
2022/11/07 01:06:31;;;;;;;15.88;6.57;;;10.50;99.90;;;;;;4982361;28;20476;-84
2022/11/07 01:08:56;;;;;;;18.77;6.65;;;10.60;99.90;;;;;;4965589;28;20038;-82
2022/11/07 01:11:25;;;;;;;21.75;7.00;;;10.60;99.90;;;;;;4968893;28;20462;-85
2022/11/07 01:13:55;;;;;;;23.45;6.50;;;10.50;99.90;;;;;;4951863;28;20074;-84
2022/11/07 01:16:21;;;;;;;21.23;6.47;;;10.70;99.90;;;;;;4969133;28;20508;-83
2022/11/07 01:18:46;;;;;;;14.57;6.35;;;10.60;99.90;;;;;;4981812;28;20046;-83
2022/11/07 01:21:12;;;;;;;18.20;5.70;;;10.70;99.90;;;;;;4972432;28;21608;-86
2022/11/07 01:23:37;;;;;;;16.67;5.75;;;10.60;99.90;;;;;;4984518;28;20832;-84
2022/11/07 01:26:05;;;;;;;17.02;6.20;;;10.50;99.90;;;;;;5004096;28;20108;-84
2022/11/07 01:28:32;;;;;;;17.98;6.20;;;10.50;99.90;;;;;;4968359;28;20042;-85
2022/11/07 01:30:58;;;;;;;19.58;6.25;;;10.70;99.90;;;;;;4985749;28;20104;-84
2022/11/07 01:33:23;;;;;;;22.90;6.10;;;10.50;99.90;;;;;;5003078;28;20480;-84
2022/11/07 01:35:50;;;;;;;17.08;6.85;;;10.50;99.90;;;;;;4970707;28;20133;-86
2022/11/07 01:38:16;;;;;;;13.48;5.85;;;10.60;99.90;;;;;;4986543;28;20507;-84
2022/11/07 01:44:07;;;;;;;22.25;7.10;;;10.50;99.90;;;;;;4989094;28;20137;-84
2022/11/07 01:46:35;;;;;;;17.48;7.43;;;10.40;99.90;;;;;;4985696;28;20093;-83
2022/11/07 01:49:13;;;;;;;19.05;7.18;;;10.60;99.90;;;;;;4973217;28;20469;-84
2022/11/07 01:52:02;;;;;;;18.75;6.60;;;10.50;99.90;;;;;;4970764;28;20034;-84
2022/11/07 01:54:35;;;;;;;19.20;6.75;;;10.70;99.90;;;;;;4921743;29;20103;-85
2022/11/07 01:57:06;;;;;;;23.65;7.50;;;10.50;99.90;;;;;;4931409;29;20059;-83
2022/11/07 01:59:33;;;;;;;19.25;6.13;;;10.50;99.90;;;;;;4921931;29;20059;-85
2022/11/07 02:01:59;;;;;;;20.73;6.18;;;10.40;99.90;;;;;;4951073;29;20039;-85
2022/11/07 02:04:28;;;;;;;19.10;5.80;;;10.50;99.90;;;;;;4917069;29;20050;-83
2022/11/07 02:06:56;;;;;;;19.20;5.97;;;10.60;99.90;;;;;;4931515;29;20740;-84
2022/11/07 02:09:21;;;;;;;16.98;6.07;;;10.50;99.90;;;;;;4930371;29;20047;-83
2022/11/07 02:11:47;;;;;;;17.80;5.85;;;10.50;99.90;;;;;;4932545;29;20043;-83
2022/11/07 02:14:17;;;;;;;19.67;5.20;;;10.70;99.90;;;;;;4929448;29;21523;-87
2022/11/07 02:16:44;;;;;;;22.48;5.72;;;10.70;99.90;;;;;;4929365;29;20135;-85
2022/11/07 02:19:26;;;;;;;13.43;5.20;;;10.60;99.90;;;;;;4926744;29;20055;-86
2022/11/07 02:22:11;;;;;;;13.43;5.10;;;10.50;99.90;;;;;;4931147;29;20502;-85
2022/11/07 02:24:38;;;;;;;17.63;5.20;;;10.70;99.90;;;;;;4941057;29;20051;-85
2022/11/07 02:27:09;;;;;;;18.63;4.93;;;10.60;99.90;;;;;;4943931;28;20304;-84
2022/11/07 02:29:37;;;;;;;13.73;4.68;;;10.50;99.90;;;;;;4926065;29;20051;-85
2022/11/07 02:32:07;;;;;;;24.85;4.82;;;10.60;99.90;;;;;;4954891;28;20358;-84
2022/11/07 02:34:33;;;;;;;21.30;4.60;;;10.40;99.90;;;;;;4969975;28;20137;-82
2022/11/07 02:37:00;;;;;;;14.57;4.22;;;10.50;99.90;;;;;;4974232;28;20042;-83
2022/11/07 02:39:27;;;;;;;18.85;4.40;;;10.60;99.90;;;;;;4972859;28;20034;-84
2022/11/07 02:41:55;;;;;;;11.85;3.90;;;10.40;99.90;;;;;;4986386;28;20034;-84
2022/11/07 02:44:21;;;;;;;14.15;3.88;;;10.50;99.90;;;;;;4985855;28;20081;-85
2022/11/07 02:46:46;;;;;;;14.57;3.50;;;10.70;99.90;;;;;;4969957;28;20372;-85
2022/11/07 02:49:12;;;;;;;11.85;3.58;;;10.60;99.90;;;;;;4984897;28;20043;-85
2022/11/07 02:51:38;;;;;;;16.45;4.10;;;10.40;99.90;;;;;;4987312;28;20045;-83
2022/11/07 02:54:04;;;;;;;10.70;3.78;;;10.40;99.90;;;;;;4975172;28;20049;-84
2022/11/07 02:56:29;;;;;;;16.55;4.28;;;10.70;99.90;;;;;;4993847;28;20049;-83
2022/11/07 02:58:55;;;;;;;17.00;4.30;;;10.60;99.90;;;;;;4989249;28;20125;-83
2022/11/07 03:01:21;;;;;;;16.95;3.55;;;10.50;99.90;;;;;;4991397;28;20046;-83
2022/11/07 03:03:49;;;;;;;14.20;3.80;;;10.70;99.90;;;;;;4972966;28;20054;-84
2022/11/07 03:06:55;;;;;;;15.40;3.63;;;10.80;99.90;;;;;;4989500;28;20217;-82
2022/11/07 03:09:21;;;;;;;15.95;3.65;;;10.50;99.90;;;;;;4987547;28;20453;-83
2022/11/07 03:11:46;;;;;;;11.25;3.00;;;10.70;99.90;;;;;;4996889;28;20041;-84
2022/11/07 03:14:12;;;;;;;13.43;3.40;;;10.40;99.90;;;;;;5015201;28;20046;-83
2022/11/07 03:16:40;;;;;;;16.25;3.17;;;10.60;99.90;;;;;;5008770;28;20088;-83
2022/11/07 03:19:05;;;;;;;10.40;3.40;;;10.70;99.90;;;;;;4996954;28;20045;-83
2022/11/07 03:21:31;;;;;;;21.25;3.95;;;10.70;99.90;;;;;;4996771;28;20280;-83
2022/11/07 03:23:58;;;;;;;16.15;4.10;;;10.70;99.90;;;;;;4984613;28;20081;-82
2022/11/07 03:26:24;;;;;;;18.02;3.90;;;10.70;99.90;;;;;;4975485;28;20053;-83
2022/11/07 03:28:49;;;;;;;20.92;4.65;;;10.50;99.90;;;;;;4994204;28;20037;-84
2022/11/07 03:31:15;;;;;;;20.08;4.13;;;10.60;99.90;;;;;;4980676;28;20449;-85
2022/11/07 03:33:40;;;;;;;20.20;4.18;;;10.50;99.90;;;;;;4995823;28;20090;-85
2022/11/07 03:39:47;;;;;;;15.40;3.65;;;10.80;99.90;;;;;;5006242;28;20040;-84
2022/11/07 03:42:13;;;;;;;19.95;4.30;;;10.60;99.90;;;;;;4978923;28;20046;-85
2022/11/07 03:44:39;;;;;;;17.23;4.22;;;10.80;99.90;;;;;;4994493;28;20062;-83
2022/11/07 03:47:05;;;;;;;13.18;3.60;;;10.60;99.90;;;;;;4980751;28;20057;-85
2022/11/07 03:49:31;;;;;;;15.10;4.00;;;10.80;99.90;;;;;;5016481;28;20038;-83
2022/11/07 03:55:40;;;;;;;16.25;3.80;;;10.40;99.90;;;;;;5013819;28;20132;-84
2022/11/07 03:58:06;;;;;;;21.65;3.95;;;10.50;99.90;;;;;;4996148;28;20082;-85
2022/11/07 04:00:32;;;;;;;15.05;3.42;;;10.40;99.90;;;;;;5000837;28;20041;-83
2022/11/07 04:02:58;;;;;;;19.83;3.72;;;10.50;99.90;;;;;;4995759;28;20046;-83
2022/11/07 04:05:25;;;;;;;18.38;3.85;;;10.60;99.90;;;;;;5007285;28;20062;-83
2022/11/07 04:07:50;;;;;;;15.02;3.55;;;10.30;99.90;;;;;;4994409;28;20052;-83
2022/11/07 04:10:17;;;;;;;17.40;3.22;;;10.40;99.90;;;;;;4995229;28;20042;-84
2022/11/07 04:18:15;;;;;;;16.15;3.35;;;10.60;99.90;;;;;;5009356;28;20096;-82
2022/11/07 04:20:40;;;;;;;12.25;3.33;;;10.40;99.90;;;;;;4991549;28;20050;-81
2022/11/07 04:23:07;;;;;;;12.48;3.22;;;10.30;99.90;;;;;;4984477;28;20058;-83
2022/11/07 04:28:18;;;;;;;22.00;3.67;;;10.30;99.90;;;;;;4987275;28;20061;-83
2022/11/07 04:30:43;;;;;;;16.85;3.97;;;10.30;99.90;;;;;;4970995;28;20045;-84
2022/11/07 04:33:09;;;;;;;18.60;4.03;;;10.20;99.90;;;;;;4988122;28;20056;-84
2022/11/07 04:35:34;;;;;;;16.63;4.40;;;10.30;99.90;;;;;;4990425;28;20476;-86
2022/11/07 04:38:00;;;;;;;23.95;4.07;;;10.10;99.90;;;;;;4984301;28;20422;-85
2022/11/07 04:40:27;;;;;;;21.27;4.75;;;10.20;99.90;;;;;;4966594;28;20092;-84
2022/11/07 04:42:54;;;;;;;20.38;4.30;;;10.20;99.90;;;;;;4967690;28;20061;-86
2022/11/07 04:45:21;;;;;;;20.60;4.18;;;10.50;99.90;;;;;;4980910;28;20042;-83
2022/11/07 04:47:47;;;;;;;18.25;3.90;;;10.60;99.90;;;;;;4989392;28;20042;-82
2022/11/07 04:50:16;;;;;;;14.98;3.85;;;10.50;99.90;;;;;;4992361;28;20073;-84
2022/11/07 04:52:42;;;;;;;19.15;4.25;;;10.30;99.90;;;;;;4990072;28;20397;-84
2022/11/07 04:55:15;;;;;;;23.48;4.45;;;10.50;99.90;;;;;;4972850;28;20166;-82
2022/11/07 04:57:40;;;;;;;23.00;4.32;;;10.60;99.90;;;;;;5007766;28;20038;-84
2022/11/07 05:00:08;;;;;;;14.65;4.20;;;10.60;99.90;;;;;;4986576;28;20060;-84
2022/11/07 05:02:33;;;;;;;20.85;5.13;;;10.70;99.90;;;;;;4971386;28;20187;-83
2022/11/07 05:04:59;;;;;;;23.65;5.03;;;10.40;99.90;;;;;;4981706;28;20129;-84
2022/11/07 05:07:27;;;;;;;20.17;5.18;;;10.70;99.90;;;;;;4981122;28;20054;-83
2022/11/07 05:09:53;;;;;;;20.45;5.47;;;10.70;99.90;;;;;;4986002;28;20049;-86
2022/11/07 05:12:19;;;;;;;22.17;4.85;;;10.50;99.90;;;;;;4966647;28;20099;-83
2022/11/07 05:14:45;;;;;;;17.95;4.85;;;10.70;99.90;;;;;;4992245;28;20184;-85
2022/11/07 05:17:15;;;;;;;23.38;5.07;;;10.60;99.90;;;;;;4985693;28;20069;-84
2022/11/07 05:19:43;;;;;;;20.63;5.57;;;10.50;99.90;;;;;;4988565;28;20037;-83
2022/11/07 05:24:54;;;;;;;19.15;5.10;;;10.50;99.90;;;;;;4989763;28;20469;-82
2022/11/07 05:27:21;;;;;;;18.80;5.22;;;10.40;99.90;;;;;;5002446;28;20048;-85
2022/11/07 05:29:47;;;;;;;19.17;5.15;;;10.40;99.90;;;;;;4976270;28;20038;-83
2022/11/07 05:32:13;;;;;;;17.17;4.60;;;10.10;99.90;;;;;;4970036;28;20045;-82
2022/11/07 05:34:39;;;;;;;18.13;5.30;;;10.30;99.90;;;;;;4971743;28;20050;-83
2022/11/07 05:37:12;;;;;;;23.98;4.93;;;10.30;99.90;;;;;;4988194;28;20050;-84
2022/11/07 05:39:37;;;;;;;15.65;4.60;;;10.10;99.90;;;;;;4970796;28;20041;-83
2022/11/07 05:42:04;;;;;;;18.65;4.93;;;10.10;99.90;;;;;;4990020;28;20037;-84
2022/11/07 05:44:30;;;;;;;18.17;5.47;;;10.10;99.90;;;;;;4987237;28;20037;-83
2022/11/07 05:46:56;;;;;;;19.75;5.40;;;10.20;99.90;;;;;;4987316;28;20082;-85
2022/11/07 05:49:25;;;;;;;22.50;5.53;;;10.20;99.90;;;;;;4984070;28;20045;-84
2022/11/07 05:51:51;;;;;;;27.58;5.82;;;10.20;99.90;;;;;;4984310;28;20037;-84
2022/11/07 05:54:17;;;;;;;20.80;6.22;;;10.10;99.90;;;;;;4988510;28;20473;-83
2022/11/07 05:56:43;;;;;;;20.23;6.43;;;10.00;99.90;;;;;;4992547;28;20034;-84
2022/11/07 05:59:09;;;;;;;31.10;7.10;;;10.20;99.90;;;;;;4986217;28;20050;-83
2022/11/07 06:01:35;;;;;;;23.98;6.22;;;10.30;99.90;;;;;;4986844;28;20061;-82
2022/11/07 06:04:03;;;;;;;26.70;6.05;;;10.30;99.90;;;;;;4990885;28;20453;-84
2022/11/07 06:06:50;;;;;;;23.40;6.47;;;10.10;99.90;;;;;;4984849;28;20109;-83
2022/11/07 06:09:16;;;;;;;24.83;6.25;;;10.10;99.90;;;;;;4990560;28;20119;-83
2022/11/07 06:11:42;;;;;;;19.90;5.97;;;10.30;99.90;;;;;;4972346;28;20463;-83
2022/11/07 06:14:08;;;;;;;16.67;5.80;;;10.10;99.90;;;;;;4989107;28;20112;-84
2022/11/07 06:16:33;;;;;;;27.45;6.38;;;10.10;99.90;;;;;;4986233;28;20511;-83
2022/11/07 06:18:59;;;;;;;19.98;6.50;;;10.40;99.90;;;;;;4989390;28;20076;-84
2022/11/07 06:21:25;;;;;;;19.10;6.55;;;10.30;99.90;;;;;;4972295;28;20045;-83
2022/11/07 06:23:50;;;;;;;27.42;6.65;;;10.60;99.90;;;;;;4985464;28;20447;-83
2022/11/07 06:26:16;;;;;;;22.58;7.13;;;10.30;99.90;;;;;;4986021;28;20046;-85
2022/11/07 06:28:42;;;;;;;18.88;6.43;;;10.30;99.90;;;;;;4982315;28;20070;-83
2022/11/07 06:31:08;;;;;;;24.10;6.38;;;10.30;99.90;;;;;;4970979;28;20058;-83
2022/11/07 06:33:34;;;;;;;16.73;6.50;;;10.40;99.90;;;;;;4995041;28;20043;-83
2022/11/07 06:36:08;;;;;;;17.48;6.03;;;10.30;99.90;;;;;;4986400;28;20041;-83
2022/11/07 06:38:35;;;;;;;21.27;7.20;;;10.40;99.90;;;;;;4987692;28;20045;-82
2022/11/07 06:41:07;;;;;;;16.35;6.32;;;10.20;99.90;;;;;;4987517;28;20045;-86
2022/11/07 06:43:33;;;;;;;19.00;5.95;;;10.40;99.90;;;;;;4972098;28;20076;-80
2022/11/07 06:46:03;;;;;;;17.73;5.85;;;10.30;99.90;;;;;;4978242;28;20429;-83
2022/11/07 06:48:29;;;;;;;23.48;6.55;;;10.20;99.90;;;;;;4994108;28;20092;-82
2022/11/07 06:50:56;;;;;;;26.35;6.55;;;10.70;99.90;;;;;;5012677;28;20117;-85
2022/11/07 06:53:22;;;;;;;19.48;5.70;;;10.20;99.90;;;;;;4990518;28;20065;-84
2022/11/07 06:55:47;;;;;;;22.85;5.70;;;10.30;99.90;;;;;;4989542;28;20053;-83
2022/11/07 06:58:13;;;;;;;27.95;5.63;;;10.10;99.90;;;;;;4976035;28;20049;-83
2022/11/07 07:00:38;;;;;;;13.63;4.63;;;10.30;99.90;;;;;;4976317;28;20191;-83
2022/11/07 07:03:05;;;;;;;26.23;4.93;;;10.20;99.90;;;;;;4991556;28;20088;-84
2022/11/07 07:05:34;;;;;;;18.10;5.03;;;10.20;99.90;;;;;;4975875;28;20049;-83
2022/11/07 07:08:00;;;;;;;17.38;5.50;;;10.10;99.90;;;;;;4971954;28;20054;-80
2022/11/07 07:10:26;;;;;;;13.85;4.85;;;10.20;99.90;;;;;;4986985;28;20067;-81
2022/11/07 07:12:53;;;;;;;11.93;4.10;;;10.10;99.90;;;;;;4982269;28;20143;-78
2022/11/07 07:15:18;;;;;;;13.02;4.40;;;10.30;99.90;;;;;;4976571;28;20113;-83
2022/11/07 07:17:44;;;;;;;15.70;4.75;;;10.50;99.90;;;;;;5005394;28;20040;-83
2022/11/07 07:20:10;;;;;;;21.55;5.28;;;10.30;99.90;;;;;;4976363;28;20140;-80
2022/11/07 07:22:36;;;;;;;18.50;5.43;;;10.20;99.90;;;;;;5005926;28;20121;-81
2022/11/07 07:25:01;;;;;;;18.40;5.35;;;10.40;99.90;;;;;;4992384;28;20149;-83
2022/11/07 07:27:27;;;;;;;21.23;5.60;;;10.50;99.90;;;;;;4986552;28;20121;-83
2022/11/07 07:29:52;;;;;;;17.27;6.40;;;10.40;99.90;;;;;;4983831;28;20046;-80
2022/11/07 07:32:23;;;;;;;20.52;7.00;;;10.30;99.90;;;;;;4985842;28;20030;-81
2022/11/07 07:34:50;;;;;;;22.80;7.82;;;10.70;99.90;;;;;;4979142;28;20058;-82
2022/11/07 07:37:16;;;;;;;25.55;7.63;;;10.40;99.90;;;;;;4999759;28;20045;-79
2022/11/07 07:39:41;;;;;;;26.83;7.55;;;10.30;99.90;;;;;;5000976;28;20033;-80
2022/11/07 07:42:08;;;;;;;22.50;7.97;;;10.70;99.90;;;;;;4984925;28;20057;-81
2022/11/07 07:44:34;;;;;;;22.30;8.57;;;10.60;99.90;;;;;;4982037;28;20050;-83
2022/11/07 07:47:01;;;;;;;25.92;8.73;;;10.70;99.90;;;;;;4979855;28;20067;-79
2022/11/07 07:49:26;;;;;;;29.65;9.23;;;10.40;99.90;;;;;;5000997;28;20065;-80
2022/11/07 07:51:54;;;;;;;27.98;8.38;;;10.60;99.90;;;;;;5001111;28;20041;-80
2022/11/07 07:54:20;;;;;;;28.50;8.80;;;10.80;99.90;;;;;;4993835;28;20481;-80
2022/11/07 07:56:45;;;;;;;25.60;8.57;;;10.80;99.90;;;;;;4983536;28;20141;-82
2022/11/07 07:59:11;;;;;;;31.13;9.35;;;10.60;99.90;;;;;;4995362;28;20116;-82
2022/11/07 08:01:37;;;;;;;26.80;9.18;;;10.80;99.90;;;;;;5008627;28;20373;-82
2022/11/07 08:04:02;;;;;;;32.47;9.00;;;10.60;99.90;;;;;;4981866;28;20054;-82
2022/11/07 08:06:29;;;;;;;25.38;8.88;;;10.60;99.90;;;;;;4978365;28;20108;-82
2022/11/07 08:08:55;;;;;;;25.38;8.60;;;11.00;99.90;;;;;;4993905;28;20064;-78
2022/11/07 08:11:21;;;;;;;26.40;8.65;;;10.70;99.90;;;;;;4979568;28;20050;-79
2022/11/07 08:13:47;;;;;;;20.25;8.30;;;10.90;99.90;;;;;;4995331;28;20060;-82
2022/11/07 08:16:13;;;;;;;27.88;8.63;;;10.80;99.90;;;;;;4977485;28;20045;-81
2022/11/07 08:18:39;;;;;;;25.20;8.38;;;10.70;99.90;;;;;;4984244;28;20073;-81
2022/11/07 08:21:05;;;;;;;23.88;9.20;;;11.00;99.90;;;;;;4994949;28;20050;-80
2022/11/07 08:23:31;;;;;;;27.98;8.85;;;10.90;99.90;;;;;;4994855;28;20139;-81
2022/11/07 08:26:01;;;;;;;21.40;8.27;;;10.90;99.90;;;;;;4990116;28;20074;-81
2022/11/07 08:28:30;;;;;;;27.23;9.20;;;11.00;99.90;;;;;;5002145;28;21734;-85
2022/11/07 08:30:55;;;;;;;25.58;8.65;;;10.70;99.90;;;;;;5000145;28;20355;-82
2022/11/07 08:33:21;;;;;;;27.23;8.23;;;11.00;99.90;;;;;;4969568;28;20049;-80
2022/11/07 08:35:46;;;;;;;28.42;8.60;;;10.80;99.90;;;;;;4964732;28;20049;-79
2022/11/07 08:38:12;;;;;;;31.00;8.63;;;11.00;99.90;;;;;;4976933;28;20090;-82
2022/11/07 08:40:38;;;;;;;30.00;8.80;;;11.00;99.90;;;;;;4981692;28;20050;-80
2022/11/07 08:43:04;;;;;;;25.42;8.27;;;11.00;99.90;;;;;;5003713;28;20042;-78
2022/11/07 08:45:30;;;;;;;26.55;8.30;;;11.10;99.90;;;;;;4970558;28;20066;-81
2022/11/07 08:47:57;;;;;;;29.60;8.35;;;10.80;99.90;;;;;;4986744;28;20457;-79
2022/11/07 08:50:24;;;;;;;32.58;9.05;;;11.00;99.90;;;;;;4990255;28;20082;-80
2022/11/07 08:52:49;;;;;;;28.13;8.52;;;10.80;99.90;;;;;;4974381;28;20456;-81
2022/11/07 08:55:15;;;;;;;32.58;7.85;;;11.20;99.90;;;;;;4975731;28;20054;-81
2022/11/07 08:57:41;;;;;;;32.72;7.65;;;11.20;99.90;;;;;;4962020;28;20082;-82
2022/11/07 09:00:07;;;;;;;32.60;7.90;;;11.20;99.90;;;;;;4991657;28;20046;-83
2022/11/07 09:02:33;;;;;;;27.92;7.47;;;10.90;99.90;;;;;;4968444;28;20053;-79
2022/11/07 09:04:58;;;;;;;25.70;7.35;;;11.20;99.90;;;;;;5005259;28;20132;-78
2022/11/07 09:07:24;;;;;;;25.73;7.47;;;11.20;99.90;;;;;;4993524;28;20061;-80
2022/11/07 09:09:50;;;;;;;25.48;7.65;;;11.20;99.90;;;;;;4993449;28;20407;-80
2022/11/07 09:12:16;;;;;;;32.45;6.97;;;11.00;99.90;;;;;;4993549;28;20346;-81
2022/11/07 09:14:41;;;;;;;25.02;6.75;;;11.40;99.90;;;;;;4991413;28;20072;-80
2022/11/07 09:17:07;;;;;;;25.23;6.72;;;11.40;99.90;;;;;;4990754;28;20050;-78
2022/11/07 09:19:33;;;;;;;28.08;6.60;;;11.50;99.90;;;;;;4990593;28;20062;-80
2022/11/07 09:21:58;;;;;;;28.17;6.38;;;11.50;99.90;;;;;;4976249;28;20057;-78
2022/11/07 09:24:24;;;;;;;24.90;6.55;;;11.40;99.90;;;;;;4993228;28;20069;-77
2022/11/07 09:26:49;;;;;;;27.73;6.93;;;11.40;99.90;;;;;;4977428;28;20052;-76
2022/11/07 09:29:15;;;;;;;33.72;6.07;;;11.60;99.90;;;;;;4994727;28;20054;-80
2022/11/07 09:31:41;;;;;;;20.15;5.68;;;11.40;99.90;;;;;;4992765;28;20132;-80
2022/11/07 09:34:06;;;;;;;23.58;6.13;;;11.40;99.90;;;;;;4988476;28;20123;-77
2022/11/07 09:36:32;;;;;;;25.85;6.10;;;11.50;99.90;;;;;;4991551;28;20049;-80
2022/11/07 09:38:59;;;;;;;25.33;5.68;;;11.80;99.90;;;;;;4972106;28;20082;-80
2022/11/07 09:41:51;;;;;;;23.90;5.80;;;11.50;99.90;;;;;;4994814;28;20046;-78
2022/11/07 09:45:14;;;;;;;25.33;5.50;;;11.80;99.90;;;;;;4990861;28;20058;-80
2022/11/07 09:47:44;;;;;;;24.70;5.38;;;11.60;99.90;;;;;;4951172;29;20426;-81
2022/11/07 09:50:25;;;;;;;20.58;5.25;;;11.60;99.90;;;;;;4933627;28;20059;-79
2022/11/07 09:53:16;;;;;;;21.38;5.00;;;11.60;99.90;;;;;;4932819;29;20045;-80
2022/11/07 09:55:55;;;;;;;22.10;5.43;;;11.70;99.90;;;;;;4915741;29;20083;-80
2022/11/07 09:58:42;;;;;;;20.02;4.80;;;11.70;99.90;;;;;;4926866;29;20047;-82
2022/11/07 10:01:14;;;;;;;21.48;4.75;;;11.70;99.90;;;;;;4911267;29;20067;-81
2022/11/07 10:03:41;;;;;;;18.67;4.95;;;12.00;99.90;;;;;;4907922;29;20500;-79
2022/11/07 10:06:28;;;;;;;23.65;4.82;;;11.70;99.90;;;;;;4926609;29;20126;-82
2022/11/07 10:09:06;;;;;;;18.85;5.05;;;12.00;99.90;;;;;;4911070;29;20048;-83
2022/11/07 10:11:49;;;;;;;25.85;5.20;;;12.00;99.90;;;;;;4918722;29;20051;-83
2022/11/07 10:14:22;;;;;;;20.77;5.22;;;11.80;99.90;;;;;;4915637;29;20051;-80
2022/11/07 10:16:48;;;;;;;25.60;4.80;;;12.10;99.90;;;;;;4908594;29;20087;-80
2022/11/07 10:19:35;;;;;;;21.23;4.93;;;12.00;99.90;;;;;;4903757;29;20096;-83
2022/11/07 10:22:12;;;;;;;22.08;4.80;;;11.90;99.90;;;;;;4951318;28;20053;-82
2022/11/07 10:24:59;;;;;;;24.42;4.75;;;12.10;99.90;;;;;;4982331;28;20043;-83
2022/11/07 10:27:25;;;;;;;21.95;4.80;;;12.10;99.90;;;;;;4966516;28;20043;-81
2022/11/07 10:29:54;;;;;;;19.58;4.18;;;12.00;99.90;;;;;;4954626;28;20065;-82
2022/11/07 10:32:41;;;;;;;24.48;4.50;;;12.10;99.90;;;;;;4979919;28;20045;-82
2022/11/07 10:35:26;;;;;;;22.80;4.60;;;12.30;99.90;;;;;;4991447;28;20045;-79
2022/11/07 10:38:00;;;;;;;21.25;4.75;;;12.10;99.90;;;;;;4992601;28;20072;-79
2022/11/07 10:40:32;;;;;;;;;;;12.10;99.90;;;;;;4969052;28;20042;-80
2022/11/07 10:42:59;;;;;;;23.83;4.50;;;12.10;99.90;;;;;;4986737;28;20008;-79
2022/11/07 10:45:26;;;;;;;18.92;4.65;;;12.20;99.90;;;;;;4990316;28;20123;-79
2022/11/07 10:47:59;;;;;;;17.40;4.25;;;12.40;99.90;;;;;;4986744;28;20365;-80
2022/11/07 10:50:25;;;;;;;19.17;3.92;;;12.30;99.90;;;;;;4981761;28;20049;-83
2022/11/07 10:52:59;;;;;;;18.23;4.03;;;12.70;99.90;;;;;;4963757;28;20499;-81
2022/11/07 10:55:26;;;;;;;18.23;4.18;;;12.70;99.90;;;;;;4988979;28;20107;-81
2022/11/07 10:58:02;;;;;;;18.58;4.47;;;12.70;99.90;;;;;;4985953;28;20046;-82
2022/11/07 11:00:35;;;;;;;19.75;4.20;;;12.60;99.90;;;;;;4965871;28;20068;-81
2022/11/07 11:03:02;;;;;;;19.45;4.45;;;12.50;99.90;;;;;;4984208;28;20052;-80
2022/11/07 11:05:43;;;;;;;24.52;4.63;;;12.60;99.90;;;;;;4989125;28;20527;-82
2022/11/07 11:08:18;;;;;;;24.80;4.47;;;12.60;99.90;;;;;;4982179;28;20065;-83
2022/11/07 11:10:44;;;;;;;22.73;4.45;;;12.50;99.90;;;;;;5001402;28;20105;-80
2022/11/07 11:13:31;;;;;;;15.43;3.78;;;12.40;99.90;;;;;;4969436;28;20658;-81
2022/11/07 11:15:58;;;;;;;22.73;4.30;;;12.60;99.90;;;;;;4985801;28;20050;-81
2022/11/07 11:18:24;;;;;;;15.73;4.20;;;12.30;99.90;;;;;;4969905;28;20053;-84
2022/11/07 11:21:02;;;;;;;19.75;4.00;;;12.40;99.90;;;;;;4986433;28;20817;-80
2022/11/07 11:23:35;;;;;;;20.02;4.07;;;12.60;99.90;;;;;;4987920;28;20069;-80
2022/11/07 11:26:24;;;;;;;27.90;4.75;;;12.70;99.90;;;;;;5005247;28;20088;-82
2022/11/07 11:29:04;;;;;;;18.50;3.88;;;12.60;99.90;;;;;;4980379;28;20042;-84
2022/11/07 11:31:41;;;;;;;18.02;4.35;;;12.60;99.90;;;;;;4998998;28;20113;-82
2022/11/07 11:34:50;;;;;;;21.85;4.15;;;12.50;99.90;;;;;;4995647;28;20046;-83
2022/11/07 11:37:22;;;;;;;18.15;4.10;;;12.70;99.90;;;;;;4947488;28;20391;-83
2022/11/07 11:39:58;;;;;;;27.17;4.15;;;12.80;99.90;;;;;;4946428;28;20055;-82
2022/11/07 11:42:53;;;;;;;22.15;3.90;;;12.90;99.90;;;;;;4930836;29;20050;-85
2022/11/07 11:46:06;;;;;;;22.77;4.45;;;12.70;99.90;;;;;;4932508;29;20137;-83
2022/11/07 11:48:57;;;;;;;20.52;3.70;;;13.00;99.90;;;;;;4928091;29;20056;-81
2022/11/07 11:51:34;;;;;;;15.40;4.32;;;13.00;99.90;;;;;;4917552;29;20102;-83
2022/11/07 11:58:16;;;;;;;23.70;4.07;;;12.90;99.90;;;;;;4931195;29;20038;-83
2022/11/07 12:00:59;;;;;;;19.35;4.30;;;13.10;99.90;;;;;;4919991;29;20490;-81
2022/11/07 12:03:45;;;;;;;16.35;3.65;;;13.00;99.90;;;;;;4934415;29;20055;-84
2022/11/07 12:06:19;;;;;;;14.48;3.65;;;13.30;99.90;;;;;;4929547;29;20075;-86
2022/11/07 12:09:10;;;;;;;19.27;4.53;;;13.40;99.90;;;;;;4938369;29;20063;-83
2022/11/07 12:11:50;;;;;;;18.30;3.67;;;13.60;99.90;;;;;;4931186;29;20463;-81
2022/11/07 12:14:34;;;;;;;19.35;4.22;;;13.70;99.90;;;;;;4964354;28;20054;-82
2022/11/07 12:17:26;;;;;;;18.58;4.10;;;13.70;99.90;;;;;;4976194;28;20044;-85
2022/11/07 12:20:19;;;;;;;19.38;3.75;;;13.60;99.90;;;;;;4928669;29;20059;-82
2022/11/07 12:23:15;;;;;;;23.35;4.53;;;13.70;99.90;;;;;;4873667;29;20115;-85
2022/11/07 12:26:00;;;;;;;15.50;3.53;;;13.50;99.90;;;;;;4817809;29;20552;-82
2022/11/07 12:28:49;;;;;;;15.68;3.70;;;13.70;99.90;;;;;;4825225;29;20195;-80
2022/11/07 12:32:06;;;;;;;18.40;3.97;;;13.90;99.90;;;;;;4837865;29;20057;-82
2022/11/07 12:34:55;;;;;;;13.52;3.50;;;13.80;99.90;;;;;;4819750;29;20045;-83
2022/11/07 12:37:41;;;;;;;20.48;4.20;;;13.70;99.90;;;;;;4824783;29;20062;-85
2022/11/07 12:40:22;;;;;;;13.93;3.50;;;13.90;99.90;;;;;;4856444;29;20117;-82
2022/11/07 12:43:00;;;;;;;16.20;3.10;;;14.10;99.90;;;;;;4840758;29;20568;-85
2022/11/07 12:45:53;;;;;;;14.35;3.47;;;14.10;99.90;;;;;;4842800;29;20529;-84
2022/11/07 12:48:28;;;;;;;12.30;2.85;;;14.00;99.90;;;;;;4841524;29;20082;-83
2022/11/07 12:50:53;;;;;;;;;;;14.00;99.90;;;;;;4829837;29;20445;-85
2022/11/07 12:53:24;;;;;;;13.88;2.70;;;14.00;99.90;;;;;;4860060;29;19957;-85
2022/11/07 12:56:16;;;;;;;17.30;3.00;;;14.10;99.90;;;;;;4828106;29;20413;-82
2022/11/07 12:58:43;;;;;;;12.52;3.13;;;14.10;99.90;;;;;;4883331;29;20111;-81
2022/11/07 13:01:17;;;;;;;13.98;3.20;;;14.10;99.90;;;;;;4911455;29;20134;-85
2022/11/07 13:04:01;;;;;;;12.60;2.75;;;14.00;99.90;;;;;;4917435;29;20126;-85
2022/11/07 13:06:50;;;;;;;15.80;3.50;;;13.80;99.90;;;;;;4911204;29;20043;-82
2022/11/07 13:09:31;;;;;;;14.05;2.80;;;13.80;99.90;;;;;;4928488;28;20046;-83
2022/11/07 13:12:17;;;;;;;12.93;3.00;;;13.90;99.90;;;;;;4971751;28;20038;-84
2022/11/07 13:14:44;;;;;;;12.93;2.58;;;13.70;99.90;;;;;;5006309;28;20043;-84
2022/11/07 13:17:11;;;;;;;13.15;2.78;;;13.70;99.90;;;;;;4982932;28;20061;-80
2022/11/07 13:19:40;;;;;;;11.73;2.88;;;13.60;99.90;;;;;;5001614;28;20046;-80
2022/11/07 13:22:16;;;;;;;16.35;3.15;;;13.70;99.90;;;;;;4968860;28;20094;-82
2022/11/07 13:25:04;;;;;;;18.73;3.60;;;13.40;99.90;;;;;;5004783;28;20058;-82